Terminal Aerodrome Forecast
Issued by NWS Northern Indiana

Home | Current Version | Previous Version | Text Only | Print | Product List | Glossary Off
Versions: 1 2 3 4 5 6 7 8 9 10 11 12 13 14 15 16 17

000
FTUS43 KIWX 200500
TAFFWA
TAF
KFWA 200520Z 2006/2106 20004KT P6SM SCT250
     FM201400 22010KT P6SM SCT040
     FM201700 22018G24KT P6SM SCT050
     FM202300 22012KT P6SM VCTS BKN040CB=

USA.gov is the U.S. government's official web portal to all federal, state and local government web resources and services.